Time;durP1;ratioP1;P1;durP2;ratioP2;P2;SDS_P1;SDS_P2;PMS_P1;PMS_P2;Temp;Humidity;BMP_temperature;BMP_pressure;BME280_temperature;BME280_humidity;BME280_pressure;Samples;Min_cycle;Max_cycle;Signal;HPM_P1;HPM_P2
2021/05/23 00:01:04;;;;;;;2.67;1.58;;;9.40;81.80;;;;;;5072421;28;20041;-79
2021/05/23 00:03:30;;;;;;;1.98;1.42;;;9.30;81.30;;;;;;5072049;28;20135;-79
2021/05/23 00:05:56;;;;;;;1.30;1.20;;;9.30;81.40;;;;;;5069204;28;20021;-79
2021/05/23 00:08:22;;;;;;;2.30;1.40;;;9.30;80.00;;;;;;5075504;28;20064;-79
2021/05/23 00:11:03;;;;;;;1.30;1.20;;;9.30;80.00;;;;;;5071037;28;20033;-80
2021/05/23 00:13:32;;;;;;;1.33;1.10;;;9.30;80.30;;;;;;5075352;28;20501;-80
2021/05/23 00:15:57;;;;;;;;;;;9.40;80.70;;;;;;5072201;28;20033;-79
2021/05/23 00:18:25;;;;;;;1.40;1.30;;;9.40;80.60;;;;;;5075625;28;19960;-80
2021/05/23 00:20:52;;;;;;;1.77;1.40;;;9.40;80.70;;;;;;5076364;28;20028;-80
2021/05/23 00:23:18;;;;;;;5.07;1.30;;;9.40;81.90;;;;;;5070711;28;20038;-79
2021/05/23 00:25:45;;;;;;;1.25;1.25;;;9.40;81.70;;;;;;5055797;28;21603;-79
2021/05/23 00:28:11;;;;;;;1.88;1.42;;;9.40;80.80;;;;;;5075939;28;20043;-80
2021/05/23 00:30:38;;;;;;;1.88;1.17;;;9.50;81.20;;;;;;5057018;28;20044;-80
2021/05/23 00:33:06;;;;;;;2.53;1.48;;;9.50;80.50;;;;;;5063119;28;20390;-80
2021/05/23 00:35:32;;;;;;;1.88;1.52;;;9.50;80.90;;;;;;5086337;28;20096;-80
2021/05/23 00:37:59;;;;;;;5.53;1.58;;;9.50;81.80;;;;;;5081386;28;20497;-78
2021/05/23 00:40:24;;;;;;;1.73;1.50;;;9.50;81.80;;;;;;5071439;28;20020;-80
2021/05/23 00:42:50;;;;;;;2.72;1.30;;;9.60;81.40;;;;;;5072596;28;20391;-79
2021/05/23 00:45:18;;;;;;;2.72;2.10;;;9.60;81.10;;;;;;5066896;28;20074;-79
2021/05/23 00:47:46;;;;;;;1.73;1.55;;;9.70;81.60;;;;;;5053245;28;20020;-79
2021/05/23 00:50:22;;;;;;;2.03;1.40;;;9.70;82.70;;;;;;5068878;28;20075;-79
2021/05/23 00:52:49;;;;;;;2.22;1.27;;;9.60;82.70;;;;;;5054091;28;20036;-79
2021/05/23 00:55:15;;;;;;;2.60;1.38;;;9.60;82.00;;;;;;5069656;28;20029;-79
2021/05/23 00:57:41;;;;;;;3.25;1.52;;;9.60;82.20;;;;;;5068295;28;20056;-78
2021/05/23 01:00:08;;;;;;;1.92;1.40;;;9.70;81.50;;;;;;5070872;28;20536;-79
2021/05/23 01:02:47;;;;;;;1.90;1.35;;;9.70;82.50;;;;;;5071648;28;20036;-79
2021/05/23 01:05:18;;;;;;;3.28;1.83;;;9.70;82.50;;;;;;5069801;28;20025;-79
2021/05/23 01:07:45;;;;;;;1.40;1.30;;;9.70;82.20;;;;;;5055460;28;20066;-79
2021/05/23 01:10:13;;;;;;;2.03;1.30;;;9.70;81.90;;;;;;5073238;28;20028;-80
2021/05/23 01:12:54;;;;;;;;;;;9.70;81.30;;;;;;5068880;28;20036;-80
2021/05/23 01:15:37;;;;;;;2.72;1.38;;;9.70;80.70;;;;;;5056832;28;19908;-79
2021/05/23 01:18:09;;;;;;;2.40;1.50;;;9.70;80.60;;;;;;5069228;28;20024;-79
2021/05/23 01:20:53;;;;;;;3.08;1.65;;;9.60;80.20;;;;;;5071478;28;20060;-80
2021/05/23 01:23:18;;;;;;;2.05;1.30;;;9.70;80.30;;;;;;5055114;28;20390;-79
2021/05/23 01:25:49;;;;;;;1.63;1.38;;;9.70;80.50;;;;;;5070435;28;20065;-79
2021/05/23 01:28:16;;;;;;;1.63;1.50;;;9.80;81.00;;;;;;5070434;28;20067;-79
2021/05/23 01:30:44;;;;;;;1.60;1.50;;;9.70;81.70;;;;;;5054974;28;20663;-80
2021/05/23 01:33:12;;;;;;;1.85;1.67;;;9.70;81.60;;;;;;5066608;28;20107;-80
2021/05/23 01:35:40;;;;;;;1.20;1.17;;;9.80;80.70;;;;;;5070004;28;20033;-78
2021/05/23 01:38:12;;;;;;;1.90;1.50;;;9.70;81.60;;;;;;5070298;28;20036;-79
2021/05/23 01:40:38;;;;;;;1.60;1.50;;;9.70;82.20;;;;;;5070989;28;20028;-78
2021/05/23 01:43:06;;;;;;;2.53;1.90;;;9.70;82.50;;;;;;5070935;28;20100;-78
2021/05/23 01:45:33;;;;;;;2.08;1.90;;;9.70;82.70;;;;;;5068668;28;20052;-78
2021/05/23 01:47:59;;;;;;;1.95;1.58;;;9.70;82.60;;;;;;5071683;28;20020;-78
2021/05/23 01:50:26;;;;;;;4.63;1.90;;;9.70;82.70;;;;;;5067844;28;20040;-78
2021/05/23 01:52:58;;;;;;;3.20;1.67;;;9.70;82.70;;;;;;5069569;28;20036;-78
2021/05/23 01:55:24;;;;;;;2.13;1.30;;;9.60;79.70;;;;;;5070386;28;20359;-79
2021/05/23 01:57:50;;;;;;;1.17;1.08;;;9.50;80.90;;;;;;5065738;28;20032;-79
2021/05/23 02:00:19;;;;;;;1.95;1.30;;;9.60;81.80;;;;;;5068223;28;20135;-78
2021/05/23 02:02:45;;;;;;;2.08;1.10;;;9.60;81.30;;;;;;5072191;28;20115;-78
2021/05/23 02:05:11;;;;;;;1.65;1.10;;;9.60;81.40;;;;;;5064859;28;20045;-78
2021/05/23 02:07:37;;;;;;;1.55;1.30;;;9.60;81.90;;;;;;5067749;28;20036;-79
2021/05/23 02:10:15;;;;;;;2.38;1.20;;;9.60;81.90;;;;;;5051468;28;20032;-80
2021/05/23 02:12:45;;;;;;;2.07;1.10;;;9.60;82.20;;;;;;5066183;28;20017;-80
2021/05/23 02:15:13;;;;;;;1.20;1.10;;;9.60;82.30;;;;;;5070462;28;20029;-79
2021/05/23 02:17:41;;;;;;;1.10;1.00;;;9.70;82.50;;;;;;5068289;28;20368;-79
2021/05/23 02:20:10;;;;;;;1.10;1.00;;;9.70;82.60;;;;;;5064611;28;20024;-79
2021/05/23 02:22:44;;;;;;;2.75;1.08;;;9.60;83.20;;;;;;5068727;28;20561;-79
2021/05/23 02:25:12;;;;;;;1.02;1.02;;;9.70;82.90;;;;;;5070765;28;20048;-79
2021/05/23 02:27:44;;;;;;;1.92;1.35;;;9.60;83.20;;;;;;5073033;28;20028;-78
2021/05/23 02:30:22;;;;;;;1.30;1.02;;;9.60;83.60;;;;;;5050056;28;20037;-79
2021/05/23 02:32:49;;;;;;;2.03;1.08;;;9.50;83.90;;;;;;5065640;28;20056;-80
2021/05/23 02:35:16;;;;;;;1.08;1.05;;;9.50;83.60;;;;;;5070603;28;20029;-79
2021/05/23 02:37:43;;;;;;;2.97;1.17;;;9.60;83.60;;;;;;5067859;28;20028;-80
2021/05/23 02:40:12;;;;;;;1.73;1.30;;;9.60;84.60;;;;;;5070784;28;20085;-80
2021/05/23 02:42:39;;;;;;;2.05;1.10;;;9.60;83.20;;;;;;5070303;28;20021;-80
2021/05/23 02:45:08;;;;;;;1.50;1.40;;;9.60;83.80;;;;;;5069791;28;20039;-79
2021/05/23 02:47:34;;;;;;;2.63;1.15;;;9.60;84.90;;;;;;5066560;28;20106;-80
2021/05/23 02:49:59;;;;;;;1.40;1.10;;;9.50;84.20;;;;;;5069415;28;20032;-79
2021/05/23 02:52:25;;;;;;;0.80;0.80;;;9.60;84.50;;;;;;5070472;28;20027;-79
2021/05/23 02:54:51;;;;;;;0.75;0.75;;;9.60;84.70;;;;;;5071990;28;20024;-79
2021/05/23 02:57:17;;;;;;;0.90;0.90;;;9.60;84.20;;;;;;5072345;28;20052;-79
2021/05/23 02:59:43;;;;;;;1.75;0.80;;;9.60;84.10;;;;;;5074078;28;20029;-80
2021/05/23 03:02:09;;;;;;;1.98;0.80;;;9.60;84.70;;;;;;5050999;28;20049;-80
2021/05/23 03:04:35;;;;;;;0.60;0.60;;;9.50;84.90;;;;;;5068435;28;20093;-79
2021/05/23 03:07:01;;;;;;;1.50;0.88;;;9.50;84.60;;;;;;5047397;28;20103;-79
2021/05/23 03:09:27;;;;;;;0.80;0.70;;;9.50;84.90;;;;;;5070735;28;20119;-78
2021/05/23 03:11:53;;;;;;;0.80;0.80;;;9.50;85.30;;;;;;5071416;28;20097;-79
2021/05/23 03:14:18;;;;;;;0.70;0.70;;;9.40;85.20;;;;;;5069691;28;20499;-78
2021/05/23 03:16:44;;;;;;;0.88;0.88;;;9.40;85.70;;;;;;5069290;28;20035;-78
2021/05/23 03:19:10;;;;;;;2.20;0.80;;;9.40;85.70;;;;;;5070977;28;20051;-78
2021/05/23 03:21:36;;;;;;;1.48;0.50;;;9.40;85.70;;;;;;5065231;28;20020;-79
2021/05/23 03:24:03;;;;;;;0.95;0.70;;;9.40;85.70;;;;;;5054355;28;20033;-78
2021/05/23 03:26:28;;;;;;;0.60;0.50;;;9.30;86.10;;;;;;5068142;28;20025;-78
2021/05/23 03:28:54;;;;;;;2.25;0.50;;;9.30;86.30;;;;;;5070457;28;20020;-78
2021/05/23 03:31:20;;;;;;;0.68;0.52;;;9.30;86.50;;;;;;5071526;28;20033;-77
2021/05/23 03:33:45;;;;;;;1.33;0.52;;;9.30;86.50;;;;;;5068867;28;20102;-78
2021/05/23 03:36:11;;;;;;;0.88;0.60;;;9.30;86.50;;;;;;5067276;28;20039;-77
2021/05/23 03:38:37;;;;;;;0.68;0.68;;;9.20;86.90;;;;;;5070233;28;20029;-77
2021/05/23 03:41:03;;;;;;;0.50;0.50;;;9.20;86.70;;;;;;5072778;28;20037;-77
2021/05/23 03:43:28;;;;;;;0.50;0.50;;;9.20;86.80;;;;;;5065195;28;20029;-77
2021/05/23 03:45:54;;;;;;;1.08;0.40;;;9.20;86.50;;;;;;5071383;28;20033;-77
2021/05/23 03:48:20;;;;;;;0.63;0.63;;;9.20;86.20;;;;;;5070198;28;20033;-77
2021/05/23 03:50:46;;;;;;;0.50;0.50;;;9.20;85.80;;;;;;5076149;28;20047;-77
2021/05/23 03:53:11;;;;;;;0.70;0.70;;;9.10;86.20;;;;;;5055056;28;20051;-77
2021/05/23 03:55:37;;;;;;;3.13;0.50;;;9.10;86.40;;;;;;5067287;28;20029;-78
2021/05/23 03:58:03;;;;;;;0.50;0.50;;;9.00;85.80;;;;;;5067282;28;20043;-77
2021/05/23 04:00:29;;;;;;;0.65;0.50;;;9.00;86.20;;;;;;5047633;28;20021;-77
2021/05/23 04:02:56;;;;;;;0.60;0.60;;;9.00;86.00;;;;;;5072591;28;20025;-77
2021/05/23 04:05:24;;;;;;;0.43;0.43;;;9.00;86.10;;;;;;5054380;28;20058;-78
2021/05/23 04:07:51;;;;;;;0.40;0.40;;;9.00;86.10;;;;;;5065865;28;20107;-78
2021/05/23 04:10:19;;;;;;;2.53;0.60;;;9.00;86.30;;;;;;5071837;28;20675;-78
2021/05/23 04:12:48;;;;;;;0.40;0.40;;;9.10;86.40;;;;;;5051209;28;20054;-77
2021/05/23 04:15:15;;;;;;;1.17;0.50;;;9.00;86.00;;;;;;5049763;28;20032;-78
2021/05/23 04:17:41;;;;;;;0.40;0.40;;;9.00;86.30;;;;;;5068019;28;20032;-77
2021/05/23 04:20:10;;;;;;;0.40;0.40;;;9.00;86.70;;;;;;5069354;28;20436;-78
2021/05/23 04:22:36;;;;;;;0.30;0.30;;;9.00;86.50;;;;;;5056297;28;20024;-77
2021/05/23 04:25:06;;;;;;;3.60;0.63;;;8.90;86.40;;;;;;5071086;28;20052;-77
2021/05/23 04:27:32;;;;;;;0.30;0.30;;;8.90;87.10;;;;;;5055102;28;20031;-77
2021/05/23 04:29:58;;;;;;;3.30;0.45;;;8.90;86.60;;;;;;5075410;28;20028;-77
2021/05/23 04:32:24;;;;;;;0.68;0.68;;;8.90;86.60;;;;;;5073880;28;20037;-78
2021/05/23 04:34:49;;;;;;;0.60;0.60;;;8.90;87.20;;;;;;5074812;28;20040;-77
2021/05/23 04:37:16;;;;;;;0.57;0.57;;;8.90;87.40;;;;;;5076242;28;20044;-76
2021/05/23 04:39:44;;;;;;;0.65;0.65;;;8.90;87.40;;;;;;5073219;28;20513;-78
2021/05/23 04:42:10;;;;;;;0.60;0.60;;;8.90;87.00;;;;;;5055009;28;20167;-77
2021/05/23 04:44:36;;;;;;;0.50;0.50;;;8.90;87.50;;;;;;5055476;28;20074;-77
2021/05/23 04:47:02;;;;;;;0.52;0.52;;;8.90;87.10;;;;;;5069710;28;20033;-77
2021/05/23 04:49:28;;;;;;;1.08;0.40;;;8.90;87.30;;;;;;5066425;28;20029;-77
2021/05/23 04:51:53;;;;;;;0.32;0.32;;;8.90;87.00;;;;;;5068217;28;20393;-76
2021/05/23 04:54:19;;;;;;;0.40;0.40;;;8.80;87.20;;;;;;5068678;28;20517;-77
2021/05/23 04:56:45;;;;;;;0.40;0.40;;;8.80;87.50;;;;;;5073752;28;20024;-77
2021/05/23 04:59:10;;;;;;;0.40;0.40;;;8.80;88.00;;;;;;5067438;28;20089;-76
2021/05/23 05:01:36;;;;;;;0.80;0.60;;;8.80;87.80;;;;;;5067612;28;20574;-77
2021/05/23 05:04:03;;;;;;;0.40;0.40;;;8.80;87.80;;;;;;5065940;28;20111;-77
2021/05/23 05:06:29;;;;;;;2.40;0.57;;;8.70;87.80;;;;;;5067130;28;20035;-77
2021/05/23 05:08:54;;;;;;;0.65;0.57;;;8.70;88.00;;;;;;5065306;28;22087;-77
2021/05/23 05:11:20;;;;;;;0.40;0.40;;;8.70;87.90;;;;;;5069289;28;20067;-77
2021/05/23 05:13:46;;;;;;;0.38;0.38;;;8.70;88.20;;;;;;5065139;28;20048;-77
2021/05/23 05:16:13;;;;;;;0.45;0.45;;;8.70;88.90;;;;;;5066118;28;20028;-77
2021/05/23 05:18:38;;;;;;;1.45;1.25;;;8.70;88.50;;;;;;5068543;28;20021;-77
2021/05/23 05:21:05;;;;;;;0.68;0.68;;;8.70;89.20;;;;;;5066348;28;20059;-77
2021/05/23 05:23:30;;;;;;;1.17;0.95;;;8.60;89.10;;;;;;5065125;28;20036;-76
2021/05/23 05:26:00;;;;;;;1.23;0.93;;;8.70;89.20;;;;;;5065789;28;20158;-76
2021/05/23 05:28:26;;;;;;;0.40;0.40;;;8.60;89.30;;;;;;5072303;28;20031;-77
2021/05/23 05:30:51;;;;;;;1.08;0.50;;;8.70;89.00;;;;;;5065929;28;20436;-76
2021/05/23 05:33:17;;;;;;;0.75;0.50;;;8.70;89.40;;;;;;5067577;28;20100;-77
2021/05/23 05:35:43;;;;;;;0.68;0.68;;;8.70;89.40;;;;;;5064616;28;20036;-77
2021/05/23 05:38:11;;;;;;;0.50;0.50;;;8.70;89.30;;;;;;5066554;28;20090;-77
2021/05/23 05:40:37;;;;;;;0.60;0.60;;;8.70;89.80;;;;;;5068899;28;20028;-77
2021/05/23 05:43:02;;;;;;;0.50;0.50;;;8.80;89.40;;;;;;5064361;28;20028;-76
2021/05/23 05:45:28;;;;;;;0.60;0.60;;;8.70;89.10;;;;;;5067698;28;20037;-79
2021/05/23 05:47:54;;;;;;;0.57;0.40;;;8.80;89.00;;;;;;5068874;28;20028;-79
2021/05/23 05:50:19;;;;;;;0.50;0.50;;;8.80;89.00;;;;;;5049474;28;20198;-79
2021/05/23 05:52:45;;;;;;;1.33;0.70;;;8.90;88.80;;;;;;5068062;28;20025;-79
2021/05/23 05:55:11;;;;;;;0.50;0.50;;;8.90;89.40;;;;;;5069721;28;20394;-79
2021/05/23 05:57:37;;;;;;;0.43;0.43;;;8.90;90.00;;;;;;5070218;28;20116;-79
2021/05/23 06:00:04;;;;;;;0.55;0.52;;;8.80;89.50;;;;;;5049889;28;20579;-79
2021/05/23 06:02:30;;;;;;;0.57;0.57;;;8.80;89.80;;;;;;5071714;28;20028;-80
2021/05/23 06:04:56;;;;;;;1.38;0.30;;;8.80;89.70;;;;;;5072244;28;20048;-79
2021/05/23 06:07:21;;;;;;;2.35;0.55;;;8.70;87.80;;;;;;5068762;28;20055;-79
2021/05/23 06:09:47;;;;;;;0.50;0.50;;;8.80;89.00;;;;;;5069069;28;20058;-78
2021/05/23 06:12:13;;;;;;;0.60;0.60;;;8.80;88.70;;;;;;5066945;28;20530;-80
2021/05/23 06:14:39;;;;;;;0.50;0.50;;;8.80;89.50;;;;;;5068701;28;20020;-79
2021/05/23 06:17:04;;;;;;;0.60;0.60;;;8.80;89.20;;;;;;5070546;28;20028;-79
2021/05/23 06:19:30;;;;;;;0.55;0.55;;;8.80;88.40;;;;;;5067906;28;20029;-79
2021/05/23 06:21:56;;;;;;;0.60;0.60;;;8.80;88.60;;;;;;5073444;28;20074;-79
2021/05/23 06:24:22;;;;;;;0.77;0.40;;;8.80;88.30;;;;;;5072241;28;20406;-79
2021/05/23 06:26:47;;;;;;;0.43;0.40;;;8.90;88.30;;;;;;5076210;28;20700;-79
2021/05/23 06:29:13;;;;;;;1.55;0.55;;;8.90;86.20;;;;;;5069059;28;20059;-79
2021/05/23 06:31:39;;;;;;;0.50;0.50;;;8.90;88.30;;;;;;5070856;28;20033;-80
2021/05/23 06:34:05;;;;;;;0.60;0.50;;;8.90;87.00;;;;;;5069426;28;20032;-79
2021/05/23 06:36:30;;;;;;;2.30;0.50;;;8.90;87.90;;;;;;5072503;28;20047;-80
2021/05/23 06:38:56;;;;;;;0.60;0.60;;;8.90;87.50;;;;;;5070549;28;20498;-79
2021/05/23 06:41:22;;;;;;;0.98;0.52;;;9.00;87.30;;;;;;5072261;28;20023;-79
2021/05/23 06:43:47;;;;;;;1.98;0.50;;;9.00;87.00;;;;;;5057971;28;20024;-80
2021/05/23 06:46:13;;;;;;;0.60;0.60;;;9.00;87.30;;;;;;5072763;28;20044;-80
2021/05/23 06:48:39;;;;;;;0.60;0.60;;;9.10;87.30;;;;;;5076944;28;20043;-80
2021/05/23 06:51:04;;;;;;;2.47;0.90;;;9.10;88.40;;;;;;5056119;28;20096;-80
2021/05/23 06:53:30;;;;;;;1.27;0.60;;;9.20;88.00;;;;;;5078042;28;20023;-80
2021/05/23 06:55:56;;;;;;;2.03;0.77;;;9.20;87.80;;;;;;5064465;28;20025;-80
2021/05/23 06:58:22;;;;;;;0.57;0.57;;;9.20;87.50;;;;;;5070155;28;20042;-80
2021/05/23 07:00:47;;;;;;;1.05;0.55;;;9.30;89.00;;;;;;5074295;28;20033;-80
2021/05/23 07:03:13;;;;;;;0.98;0.80;;;9.30;88.80;;;;;;5075139;28;20074;-80
2021/05/23 07:05:39;;;;;;;0.57;0.57;;;9.30;87.50;;;;;;5055937;28;20092;-79
2021/05/23 07:08:05;;;;;;;1.42;0.73;;;9.30;87.80;;;;;;5068750;28;20506;-80
2021/05/23 07:10:31;;;;;;;0.73;0.60;;;9.40;88.10;;;;;;5068873;28;20028;-80
2021/05/23 07:12:57;;;;;;;0.60;0.60;;;9.40;87.80;;;;;;5071086;28;20039;-80
2021/05/23 07:15:23;;;;;;;0.57;0.57;;;9.40;86.70;;;;;;5071731;28;20063;-80
2021/05/23 07:17:52;;;;;;;0.60;0.60;;;9.40;86.70;;;;;;5069800;28;20466;-79
2021/05/23 07:20:17;;;;;;;;;;;9.40;88.40;;;;;;5071564;28;20054;-80
2021/05/23 07:22:43;;;;;;;1.35;0.77;;;9.50;88.50;;;;;;5047552;28;19924;-80
2021/05/23 07:25:09;;;;;;;0.57;0.57;;;9.40;87.30;;;;;;5069227;28;20032;-79
2021/05/23 07:27:35;;;;;;;0.80;0.80;;;9.50;88.50;;;;;;5069846;28;20024;-79
2021/05/23 07:30:01;;;;;;;0.85;0.73;;;9.60;89.60;;;;;;5076078;28;20676;-80
2021/05/23 07:32:26;;;;;;;2.10;0.85;;;9.60;88.60;;;;;;5069076;28;20032;-79
2021/05/23 07:34:52;;;;;;;1.00;0.70;;;9.60;89.10;;;;;;5050591;28;20074;-79
2021/05/23 07:37:18;;;;;;;0.95;0.95;;;9.60;88.90;;;;;;5069402;28;20033;-80
2021/05/23 07:39:44;;;;;;;1.85;0.82;;;9.60;88.10;;;;;;5067500;28;20028;-80
2021/05/23 07:42:11;;;;;;;0.70;0.70;;;9.60;88.20;;;;;;5065089;28;20023;-81
2021/05/23 07:44:37;;;;;;;1.42;0.80;;;9.60;88.00;;;;;;5063024;28;20021;-79
2021/05/23 07:47:02;;;;;;;1.20;0.60;;;9.50;88.00;;;;;;5065232;28;20032;-80
2021/05/23 07:49:28;;;;;;;0.55;0.55;;;9.50;87.90;;;;;;5065520;28;20037;-80
2021/05/23 07:51:54;;;;;;;0.95;0.57;;;9.50;88.00;;;;;;5067795;28;20618;-79
2021/05/23 07:54:19;;;;;;;0.60;0.60;;;9.50;88.10;;;;;;5068556;28;20028;-80
2021/05/23 07:56:45;;;;;;;0.70;0.70;;;9.60;88.30;;;;;;5067379;28;20024;-80
2021/05/23 07:59:11;;;;;;;1.95;0.70;;;9.60;87.80;;;;;;5069510;28;20029;-80
2021/05/23 08:01:37;;;;;;;0.75;0.75;;;9.50;87.20;;;;;;5050813;28;20399;-79
2021/05/23 08:04:03;;;;;;;1.00;0.70;;;9.50;87.80;;;;;;5075267;28;20080;-80
2021/05/23 08:06:30;;;;;;;1.92;0.85;;;9.60;87.80;;;;;;5072104;28;20017;-79
2021/05/23 08:08:56;;;;;;;0.68;0.68;;;9.60;88.20;;;;;;5071872;28;20031;-80
2021/05/23 08:11:21;;;;;;;0.70;0.70;;;9.60;87.60;;;;;;5056333;28;20036;-79
2021/05/23 08:13:47;;;;;;;1.65;0.80;;;9.60;87.10;;;;;;5071812;28;20120;-80
2021/05/23 08:16:13;;;;;;;0.70;0.70;;;9.60;87.50;;;;;;5069100;28;20043;-79
2021/05/23 08:18:38;;;;;;;0.60;0.60;;;9.70;87.60;;;;;;5075027;28;20048;-80
2021/05/23 08:21:05;;;;;;;0.60;0.60;;;9.80;87.60;;;;;;5074843;28;20036;-80
2021/05/23 08:23:32;;;;;;;0.77;0.70;;;9.80;87.50;;;;;;5067932;28;20032;-80
2021/05/23 08:25:59;;;;;;;0.60;0.60;;;9.90;87.70;;;;;;5073852;28;20032;-80
2021/05/23 08:28:26;;;;;;;1.48;1.13;;;9.80;86.80;;;;;;5053908;28;20023;-79
2021/05/23 08:30:52;;;;;;;0.73;0.73;;;9.90;87.30;;;;;;5051036;28;20033;-80
2021/05/23 08:33:18;;;;;;;0.85;0.82;;;9.90;86.00;;;;;;5073899;28;20028;-80
2021/05/23 08:35:44;;;;;;;0.88;0.77;;;9.90;85.10;;;;;;5075730;28;20039;-80
2021/05/23 08:38:09;;;;;;;0.77;0.60;;;9.80;85.30;;;;;;5068819;28;20025;-80
2021/05/23 08:40:36;;;;;;;2.58;0.55;;;9.80;85.60;;;;;;5073068;28;20028;-80
2021/05/23 08:43:07;;;;;;;0.52;0.52;;;9.80;85.20;;;;;;5069881;28;20029;-80
2021/05/23 08:45:33;;;;;;;2.25;0.52;;;9.80;85.50;;;;;;5071248;28;20089;-80
2021/05/23 08:47:59;;;;;;;0.40;0.40;;;9.80;85.40;;;;;;5069458;28;20020;-80
2021/05/23 08:50:25;;;;;;;0.57;0.57;;;9.80;85.30;;;;;;5064560;28;20036;-79
2021/05/23 08:52:58;;;;;;;1.73;0.50;;;9.70;82.80;;;;;;5069310;28;20375;-80
2021/05/23 08:55:25;;;;;;;0.50;0.50;;;9.60;85.40;;;;;;5072932;28;20386;-80
2021/05/23 08:57:52;;;;;;;0.40;0.40;;;9.60;85.00;;;;;;5070621;28;20083;-79
2021/05/23 09:00:19;;;;;;;0.50;0.50;;;9.50;84.80;;;;;;5071833;28;20433;-79
2021/05/23 09:02:54;;;;;;;0.75;0.47;;;9.40;84.80;;;;;;5068641;28;20036;-80
2021/05/23 09:05:37;;;;;;;0.80;0.50;;;9.30;85.20;;;;;;5083464;28;20085;-78
2021/05/23 09:08:12;;;;;;;0.50;0.50;;;9.20;83.40;;;;;;5060002;28;20032;-77
2021/05/23 09:10:39;;;;;;;0.68;0.40;;;9.20;85.10;;;;;;5069506;28;20046;-78
2021/05/23 09:13:06;;;;;;;0.90;0.50;;;9.30;85.00;;;;;;5052783;28;20084;-78
2021/05/23 09:15:32;;;;;;;0.50;0.50;;;9.40;84.90;;;;;;5056788;28;20080;-77
2021/05/23 09:18:10;;;;;;;0.60;0.60;;;9.50;86.90;;;;;;5082657;28;20051;-79
2021/05/23 09:20:38;;;;;;;0.65;0.47;;;9.70;88.10;;;;;;5065391;28;20433;-80
2021/05/23 09:23:14;;;;;;;0.43;0.43;;;9.90;85.40;;;;;;5063319;28;20029;-80
2021/05/23 09:25:40;;;;;;;0.60;0.60;;;10.00;85.10;;;;;;5057536;28;20363;-80
2021/05/23 09:28:09;;;;;;;0.82;0.65;;;10.20;84.70;;;;;;5057872;28;20060;-80
2021/05/23 09:30:37;;;;;;;0.38;0.38;;;10.30;85.90;;;;;;5048905;28;20032;-81
2021/05/23 09:33:04;;;;;;;0.50;0.50;;;10.60;85.90;;;;;;5065443;28;20025;-81
2021/05/23 09:35:31;;;;;;;0.60;0.60;;;10.70;84.60;;;;;;5063108;28;20035;-81
2021/05/23 09:37:59;;;;;;;1.88;0.70;;;10.80;82.40;;;;;;5061813;28;20024;-81
2021/05/23 09:40:28;;;;;;;0.80;0.80;;;10.90;83.20;;;;;;5055017;28;20534;-77
2021/05/23 09:42:55;;;;;;;1.27;0.60;;;11.00;84.10;;;;;;5072911;28;20031;-77
2021/05/23 09:45:24;;;;;;;1.75;0.60;;;11.10;83.50;;;;;;5068920;28;20036;-77
2021/05/23 09:47:52;;;;;;;1.02;0.68;;;11.30;82.30;;;;;;5073081;28;20520;-77
2021/05/23 09:50:41;;;;;;;0.70;0.70;;;11.40;85.00;;;;;;5078727;28;20047;-78
2021/05/23 09:53:26;;;;;;;0.70;0.70;;;11.50;81.00;;;;;;5079144;28;20093;-79
2021/05/23 09:55:57;;;;;;;0.60;0.60;;;11.70;83.50;;;;;;5053416;28;20093;-77
2021/05/23 09:58:31;;;;;;;0.63;0.63;;;11.70;78.60;;;;;;5053486;28;20502;-78
2021/05/23 10:00:58;;;;;;;0.90;0.90;;;11.70;79.90;;;;;;5046452;28;20033;-78
2021/05/23 10:03:29;;;;;;;0.75;0.75;;;12.00;79.10;;;;;;5076596;28;20025;-78
2021/05/23 10:05:54;;;;;;;1.25;0.65;;;12.10;81.10;;;;;;5069521;28;20017;-79
2021/05/23 10:08:21;;;;;;;0.68;0.68;;;12.30;79.50;;;;;;5070338;28;20043;-79
2021/05/23 10:10:48;;;;;;;0.50;0.50;;;12.40;77.10;;;;;;5052020;28;20024;-78
2021/05/23 10:13:14;;;;;;;0.60;0.60;;;12.50;77.00;;;;;;5073753;28;20042;-77
2021/05/23 10:15:40;;;;;;;1.58;0.80;;;12.50;73.10;;;;;;5067470;28;20080;-78
2021/05/23 10:18:10;;;;;;;1.45;0.80;;;12.40;73.20;;;;;;5066410;28;20098;-78
2021/05/23 10:20:37;;;;;;;2.10;0.60;;;12.40;73.20;;;;;;5071288;28;20177;-78
2021/05/23 10:23:18;;;;;;;0.73;0.65;;;12.40;73.00;;;;;;5065645;28;20167;-78
2021/05/23 10:25:56;;;;;;;1.25;0.70;;;12.50;73.50;;;;;;5061615;28;20119;-78
2021/05/23 10:28:23;;;;;;;0.68;0.68;;;12.60;72.70;;;;;;5067783;28;20036;-78
2021/05/23 10:30:52;;;;;;;1.65;0.50;;;12.60;75.00;;;;;;5051132;28;20032;-78
2021/05/23 10:33:19;;;;;;;0.65;0.65;;;12.50;72.80;;;;;;5072738;28;20025;-77
2021/05/23 10:35:47;;;;;;;3.17;0.52;;;12.40;72.50;;;;;;5060446;28;20504;-79
2021/05/23 10:38:16;;;;;;;1.95;0.57;;;12.20;70.90;;;;;;5078642;28;20108;-80
2021/05/23 10:40:50;;;;;;;0.50;0.50;;;12.10;72.60;;;;;;5074898;28;20024;-79
2021/05/23 10:43:21;;;;;;;0.47;0.40;;;11.80;72.70;;;;;;5068316;28;20064;-79
2021/05/23 10:45:47;;;;;;;1.35;0.47;;;11.60;77.40;;;;;;5065420;28;20021;-80
2021/05/23 10:48:15;;;;;;;2.15;0.50;;;11.50;77.50;;;;;;5074043;28;20063;-80
2021/05/23 10:50:41;;;;;;;0.60;0.43;;;11.40;77.10;;;;;;5073417;28;20048;-79
2021/05/23 10:53:07;;;;;;;0.40;0.40;;;11.40;77.10;;;;;;5066194;28;20062;-80
2021/05/23 10:55:34;;;;;;;0.30;0.30;;;11.30;75.40;;;;;;5070256;28;20021;-80
2021/05/23 10:58:01;;;;;;;1.67;0.47;;;11.20;74.10;;;;;;5069661;28;20032;-79
2021/05/23 11:00:36;;;;;;;0.30;0.30;;;11.30;77.20;;;;;;5052383;28;20107;-79
2021/05/23 11:03:14;;;;;;;0.30;0.30;;;11.40;75.80;;;;;;5050281;28;20125;-80
2021/05/23 11:05:40;;;;;;;;;;;11.50;76.50;;;;;;5067595;28;20096;-80
2021/05/23 11:08:07;;;;;;;0.45;0.40;;;11.70;76.50;;;;;;5074986;28;20383;-79
2021/05/23 11:10:43;;;;;;;0.30;0.30;;;11.80;73.00;;;;;;5046920;28;20111;-79
2021/05/23 11:13:12;;;;;;;0.40;0.40;;;11.90;73.60;;;;;;5071552;28;20021;-78
2021/05/23 11:15:43;;;;;;;1.73;0.50;;;12.00;69.70;;;;;;5064889;28;20025;-78
2021/05/23 11:18:12;;;;;;;0.60;0.50;;;12.00;72.90;;;;;;5069207;28;20057;-79
2021/05/23 11:20:38;;;;;;;0.80;0.50;;;12.10;71.40;;;;;;5067853;28;20029;-79
2021/05/23 11:23:06;;;;;;;0.93;0.40;;;12.20;74.00;;;;;;5074795;28;20078;-78
2021/05/23 11:25:34;;;;;;;1.42;1.33;;;12.20;71.90;;;;;;5049787;28;21327;-79
2021/05/23 11:28:05;;;;;;;0.30;0.30;;;12.40;75.50;;;;;;5050234;28;20021;-79
2021/05/23 11:30:37;;;;;;;0.40;0.40;;;12.50;73.40;;;;;;5075562;28;20446;-80
2021/05/23 11:33:15;;;;;;;0.38;0.30;;;12.60;73.40;;;;;;5073683;28;20474;-80
2021/05/23 11:35:42;;;;;;;0.77;0.50;;;12.60;73.80;;;;;;5080424;28;20020;-80
2021/05/23 11:38:09;;;;;;;0.50;0.47;;;12.60;71.00;;;;;;5070768;28;20032;-79
2021/05/23 11:40:43;;;;;;;0.40;0.40;;;12.70;69.40;;;;;;5056691;28;20039;-80
2021/05/23 11:43:14;;;;;;;0.40;0.40;;;12.70;70.60;;;;;;5070162;28;20114;-80
2021/05/23 11:45:53;;;;;;;0.95;0.60;;;12.80;71.00;;;;;;5069392;28;20043;-79
2021/05/23 11:48:38;;;;;;;0.90;0.75;;;12.70;69.30;;;;;;5065026;28;20031;-81
2021/05/23 11:51:05;;;;;;;1.92;0.50;;;12.70;70.30;;;;;;5075678;28;20028;-78
2021/05/23 11:53:49;;;;;;;0.63;0.20;;;12.40;70.30;;;;;;5056048;28;20056;-79
2021/05/23 11:56:18;;;;;;;1.25;1.17;;;12.00;71.90;;;;;;5076567;28;20025;-78
2021/05/23 11:58:51;;;;;;;0.20;0.20;;;11.40;74.10;;;;;;5054571;28;20032;-79
2021/05/23 12:01:18;;;;;;;0.40;0.40;;;11.00;75.50;;;;;;5065544;28;20063;-79
2021/05/23 12:04:01;;;;;;;1.65;0.35;;;11.00;76.40;;;;;;5078000;28;20161;-78
2021/05/23 12:06:28;;;;;;;0.30;0.30;;;11.20;79.00;;;;;;5060291;28;20052;-79
2021/05/23 12:09:04;;;;;;;1.13;0.30;;;11.40;80.30;;;;;;5065997;28;20141;-79
2021/05/23 12:11:39;;;;;;;0.30;0.30;;;11.50;80.80;;;;;;5053334;28;20474;-79
2021/05/23 12:14:16;;;;;;;1.30;0.40;;;11.60;77.60;;;;;;5077905;28;20516;-78
2021/05/23 12:16:42;;;;;;;0.65;0.30;;;11.80;80.60;;;;;;5066847;28;20210;-79
2021/05/23 12:19:08;;;;;;;0.30;0.30;;;11.80;77.50;;;;;;5069808;28;20083;-79
2021/05/23 12:21:33;;;;;;;0.52;0.52;;;11.90;79.30;;;;;;5072846;28;20017;-79
2021/05/23 12:23:59;;;;;;;0.40;0.40;;;12.00;78.50;;;;;;5070366;28;20021;-79
2021/05/23 12:26:26;;;;;;;0.60;0.60;;;12.10;75.50;;;;;;5055060;28;20021;-80
2021/05/23 12:28:53;;;;;;;0.60;0.60;;;12.20;73.60;;;;;;5070729;28;20028;-78
2021/05/23 12:31:21;;;;;;;2.00;0.70;;;12.20;72.90;;;;;;5074600;28;20123;-78
2021/05/23 12:33:55;;;;;;;0.90;0.60;;;12.30;72.70;;;;;;5071268;28;20021;-79
2021/05/23 12:36:26;;;;;;;0.80;0.40;;;12.40;76.90;;;;;;5068171;28;20050;-79
2021/05/23 12:38:57;;;;;;;0.85;0.50;;;12.50;73.00;;;;;;5069160;28;20427;-78
2021/05/23 12:41:34;;;;;;;1.45;0.50;;;12.60;73.20;;;;;;5064891;28;20669;-79
2021/05/23 12:44:00;;;;;;;1.45;0.50;;;12.70;72.50;;;;;;5068586;28;20021;-79
2021/05/23 12:46:25;;;;;;;1.60;0.60;;;12.80;73.40;;;;;;5074751;28;20069;-79
2021/05/23 12:48:51;;;;;;;0.60;0.60;;;12.90;71.00;;;;;;5071283;28;20086;-79
2021/05/23 12:51:19;;;;;;;0.55;0.55;;;13.00;73.40;;;;;;5067459;28;20119;-80
2021/05/23 12:53:51;;;;;;;4.78;0.65;;;13.10;73.50;;;;;;5072653;28;20035;-79
2021/05/23 12:56:19;;;;;;;0.55;0.55;;;13.20;74.10;;;;;;5068568;28;20025;-79
2021/05/23 12:58:57;;;;;;;0.40;0.40;;;13.40;73.70;;;;;;5068132;28;20028;-79